Time;durP1;ratioP1;P1;durP2;ratioP2;P2;SDS_P1;SDS_P2;PMS_P1;PMS_P2;Temp;Humidity;BMP_temperature;BMP_pressure;BME280_temperature;BME280_humidity;BME280_pressure;Samples;Min_cycle;Max_cycle;Signal;HPM_P1;HPM_P2
2022/09/27 00:00:17;;;;;;;;;;;12.50;99.90;;;;;;4908745;29;19918;-71
2022/09/27 00:02:44;;;;;;;;;;;12.50;99.90;;;;;;4911431;29;19958;-71
2022/09/27 00:05:09;;;;;;;;;;;12.40;99.90;;;;;;4912185;29;19916;-71
2022/09/27 00:07:35;;;;;;;;;;;12.40;99.90;;;;;;4911305;29;19919;-71
2022/09/27 00:10:01;;;;;;;;;;;12.40;99.90;;;;;;4911384;29;20257;-70
2022/09/27 00:12:27;;;;;;;;;;;12.30;99.90;;;;;;4910709;29;19943;-71
2022/09/27 00:14:53;;;;;;;;;;;12.20;99.90;;;;;;4910122;29;19927;-70
2022/09/27 00:17:18;;;;;;;;;;;12.20;99.90;;;;;;4909040;29;19911;-70
2022/09/27 00:19:44;;;;;;;;;;;12.20;99.90;;;;;;4909846;29;19951;-71
2022/09/27 00:22:10;;;;;;;;;;;12.20;99.90;;;;;;4910623;29;19939;-71
2022/09/27 00:24:35;;;;;;;;;;;12.20;99.90;;;;;;4910455;29;20110;-70
2022/09/27 00:27:01;;;;;;;;;;;12.20;99.90;;;;;;4909371;29;19919;-70
2022/09/27 00:29:26;;;;;;;;;;;12.20;99.90;;;;;;4910330;29;20019;-70
2022/09/27 00:31:52;;;;;;;;;;;12.10;99.90;;;;;;4909217;29;19919;-70
2022/09/27 00:34:20;;;;;;;;;;;12.10;99.90;;;;;;4910377;29;20194;-70
2022/09/27 00:36:45;;;;;;;;;;;12.10;99.90;;;;;;4909909;29;20225;-71
2022/09/27 00:39:11;;;;;;;;;;;12.00;99.90;;;;;;4893474;29;19919;-70
2022/09/27 00:41:37;;;;;;;;;;;12.10;99.90;;;;;;4909883;29;19915;-70
2022/09/27 00:44:24;;;;;;;;;;;12.00;99.90;;;;;;4909939;29;20147;-70
2022/09/27 00:46:56;;;;;;;;;;;12.10;99.90;;;;;;4909709;29;19982;-71
2022/09/27 00:49:27;;;;;;;;;;;12.00;99.90;;;;;;4910069;29;20151;-70
2022/09/27 00:51:55;;;;;;;;;;;12.00;99.90;;;;;;4893260;29;19919;-70
2022/09/27 00:54:21;;;;;;;;;;;11.90;99.90;;;;;;4893377;29;20404;-71
2022/09/27 00:56:47;;;;;;;;;;;11.90;99.90;;;;;;4895785;29;19915;-71
2022/09/27 00:59:40;;;;;;;;;;;11.90;99.90;;;;;;4908738;29;19919;-70
2022/09/27 01:02:06;;;;;;;;;;;11.90;99.90;;;;;;4907717;29;20139;-70
2022/09/27 01:04:31;;;;;;;;;;;11.80;99.90;;;;;;4908619;29;19987;-71
2022/09/27 01:06:57;;;;;;;;;;;11.80;99.90;;;;;;4892717;29;19911;-71
2022/09/27 01:09:23;;;;;;;;;;;11.80;99.90;;;;;;4909819;29;20118;-70
2022/09/27 01:12:01;;;;;;;;;;;11.80;99.90;;;;;;4907874;29;19920;-70
2022/09/27 01:14:48;;;;;;;;;;;11.70;99.90;;;;;;4909636;29;20198;-70
2022/09/27 01:17:38;;;;;;;;;;;11.70;99.90;;;;;;4909216;29;20161;-70
2022/09/27 01:20:22;;;;;;;;;;;11.70;99.90;;;;;;4909492;29;19974;-70
2022/09/27 01:22:54;;;;;;;;;;;11.70;99.90;;;;;;4909358;29;19926;-70
2022/09/27 01:25:48;;;;;;;;;;;11.70;99.90;;;;;;4922270;29;19990;-70
2022/09/27 01:28:16;;;;;;;;;;;11.70;99.90;;;;;;4913253;29;19919;-71
2022/09/27 01:31:01;;;;;;;;;;;11.70;99.90;;;;;;4909264;29;19911;-71
2022/09/27 01:33:31;;;;;;;;;;;11.70;99.90;;;;;;4909277;29;19959;-69
2022/09/27 01:36:19;;;;;;;;;;;11.70;99.90;;;;;;4908973;29;20205;-70
2022/09/27 01:39:07;;;;;;;;;;;11.70;99.90;;;;;;4909087;29;20269;-70
2022/09/27 01:41:56;;;;;;;;;;;11.70;99.90;;;;;;4908834;29;19911;-69
2022/09/27 01:44:24;;;;;;;;;;;11.70;99.90;;;;;;4908084;29;19922;-71
2022/09/27 01:46:53;;;;;;;;;;;11.60;99.90;;;;;;4908575;29;19970;-70
2022/09/27 01:49:26;;;;;;;;;;;11.60;99.90;;;;;;4904239;29;20159;-70
2022/09/27 01:51:58;;;;;;;;;;;11.60;99.90;;;;;;4889008;29;19911;-71
2022/09/27 01:54:34;;;;;;;;;;;11.60;99.90;;;;;;4892290;29;19920;-71
2022/09/27 01:57:00;;;;;;;;;;;11.60;99.90;;;;;;4906787;29;19911;-70
2022/09/27 01:59:35;;;;;;;;;;;11.50;99.90;;;;;;4907685;29;19954;-69
2022/09/27 02:02:04;;;;;;;;;;;11.50;99.90;;;;;;4891759;29;19918;-71
2022/09/27 02:04:30;;;;;;;;;;;11.50;99.90;;;;;;4892029;29;19931;-71
2022/09/27 02:06:59;;;;;;;;;;;11.50;99.90;;;;;;4907213;29;19918;-71
2022/09/27 02:09:29;;;;;;;;;;;11.50;99.90;;;;;;4892160;29;19915;-70
2022/09/27 02:11:57;;;;;;;;;;;11.50;99.90;;;;;;4892185;29;20199;-70
2022/09/27 02:14:30;;;;;;;;;;;11.50;99.90;;;;;;4907163;29;19912;-70
2022/09/27 02:17:07;;;;;;;;;;;11.40;99.90;;;;;;4890563;29;19923;-71
2022/09/27 02:20:00;;;;;;;;;;;11.40;99.90;;;;;;4904706;29;19983;-70
2022/09/27 02:22:32;;;;;;;;;;;11.30;99.90;;;;;;4899948;29;20110;-70
2022/09/27 02:25:00;;;;;;;;;;;11.30;99.90;;;;;;4902146;29;20004;-70
2022/09/27 02:27:33;;;;;;;;;;;11.30;99.90;;;;;;4904533;29;19978;-71
2022/09/27 02:30:10;;;;;;;;;;;11.20;99.90;;;;;;4912295;29;19994;-70
2022/09/27 02:32:36;;;;;;;;;;;11.20;99.90;;;;;;4899821;29;19998;-71
2022/09/27 02:35:26;;;;;;;;;;;11.10;99.90;;;;;;4922665;29;19919;-72
2022/09/27 02:37:53;;;;;;;;;;;11.10;99.90;;;;;;4901136;29;19967;-71
2022/09/27 02:40:19;;;;;;;;;;;11.00;99.90;;;;;;4918981;29;19934;-70
2022/09/27 02:42:44;;;;;;;;;;;11.00;99.90;;;;;;4906390;29;19954;-71
2022/09/27 02:45:11;;;;;;;;;;;10.90;99.90;;;;;;4890593;29;19923;-70
2022/09/27 02:48:17;;;;;;;;;;;10.90;99.90;;;;;;4906443;29;19918;-70
2022/09/27 02:50:50;;;;;;;;;;;10.80;99.90;;;;;;4906556;29;19934;-71
2022/09/27 02:53:24;;;;;;;;;;;10.80;99.90;;;;;;4906086;29;19911;-71
2022/09/27 02:56:12;;;;;;;;;;;10.80;99.90;;;;;;4891069;29;19986;-71
2022/09/27 02:58:48;;;;;;;;;;;10.80;99.90;;;;;;4907415;29;19950;-70
2022/09/27 03:01:26;;;;;;;;;;;10.80;99.90;;;;;;4903988;29;19923;-70
2022/09/27 03:03:59;;;;;;;;;;;10.80;99.90;;;;;;4903233;29;19959;-70
2022/09/27 03:06:24;;;;;;;;;;;10.70;99.90;;;;;;4890231;29;19915;-77
2022/09/27 03:08:50;;;;;;;;;;;10.70;99.90;;;;;;4904579;29;19982;-70
2022/09/27 03:11:16;;;;;;;;;;;10.70;99.90;;;;;;4906411;29;19982;-71
2022/09/27 03:13:43;;;;;;;;;;;10.70;99.90;;;;;;4907283;29;19917;-71
2022/09/27 03:16:09;;;;;;;;;;;10.70;99.90;;;;;;4890087;29;19912;-72
2022/09/27 03:18:34;;;;;;;;;;;10.70;99.90;;;;;;4890788;29;19960;-73
2022/09/27 03:21:00;;;;;;;;;;;10.70;99.90;;;;;;4906336;29;19951;-72
2022/09/27 03:23:26;;;;;;;;;;;10.70;99.90;;;;;;4904331;29;19915;-72
2022/09/27 03:25:52;;;;;;;;;;;10.70;99.90;;;;;;4906980;29;19915;-73
2022/09/27 03:28:18;;;;;;;;;;;10.60;99.90;;;;;;4901928;29;19916;-73
2022/09/27 03:30:44;;;;;;;;;;;10.60;99.90;;;;;;4917500;29;20058;-73
2022/09/27 03:33:10;;;;;;;;;;;10.70;99.90;;;;;;4890255;29;19912;-72
2022/09/27 03:35:36;;;;;;;;;;;10.70;99.90;;;;;;4909564;29;19918;-73
2022/09/27 03:38:02;;;;;;;;;;;10.70;99.90;;;;;;4896322;29;19971;-73
2022/09/27 03:40:28;;;;;;;;;;;10.70;99.90;;;;;;4896920;29;20210;-73
2022/09/27 03:42:53;;;;;;;;;;;10.60;99.90;;;;;;4912464;29;19963;-73
2022/09/27 03:45:19;;;;;;;;;;;10.60;99.90;;;;;;4913491;29;19924;-73
2022/09/27 03:47:45;;;;;;;;;;;10.60;99.90;;;;;;4912946;29;19911;-72
2022/09/27 03:50:11;;;;;;;;;;;10.60;99.90;;;;;;4896773;29;19943;-73
2022/09/27 03:52:36;;;;;;;;;;;10.60;99.90;;;;;;4912343;29;19912;-73
2022/09/27 03:55:02;;;;;;;;;;;10.60;99.90;;;;;;4912198;29;19911;-73
2022/09/27 03:57:29;;;;;;;;;;;10.60;99.90;;;;;;4896442;29;19959;-73
2022/09/27 03:59:55;;;;;;;;;;;10.60;99.90;;;;;;4896783;29;19912;-72
2022/09/27 04:02:21;;;;;;;;;;;10.60;99.90;;;;;;4907656;29;19918;-73
2022/09/27 04:04:46;;;;;;;;;;;10.60;99.90;;;;;;4913326;29;19998;-73
2022/09/27 04:07:12;;;;;;;;;;;10.60;99.90;;;;;;4912943;29;19912;-73
2022/09/27 04:09:38;;;;;;;;;;;10.60;99.90;;;;;;4912274;29;19935;-73
2022/09/27 04:12:04;;;;;;;;;;;10.60;99.90;;;;;;4913307;29;20210;-72
2022/09/27 04:14:29;;;;;;;;;;;10.60;99.90;;;;;;4912389;29;19912;-73
2022/09/27 04:16:55;;;;;;;;;;;10.60;99.90;;;;;;4912690;29;19912;-73
2022/09/27 04:19:21;;;;;;;;;;;10.60;99.90;;;;;;4912254;29;19915;-73
2022/09/27 04:21:46;;;;;;;;;;;10.70;99.90;;;;;;4912148;29;19911;-72
2022/09/27 04:24:12;;;;;;;;;;;10.70;99.90;;;;;;4912112;29;20114;-72
2022/09/27 04:26:38;;;;;;;;;;;10.60;99.90;;;;;;4912864;29;19959;-73
2022/09/27 04:29:04;;;;;;;;;;;10.60;99.90;;;;;;4896645;29;19926;-73
2022/09/27 04:31:30;;;;;;;;;;;10.60;99.90;;;;;;4893225;29;19912;-73
2022/09/27 04:33:56;;;;;;;;;;;10.60;99.90;;;;;;4893214;29;19912;-73
2022/09/27 04:36:27;;;;;;;;;;;10.60;99.90;;;;;;4894062;29;19954;-73
2022/09/27 04:38:54;;;;;;;;;;;10.60;99.90;;;;;;4893922;29;20111;-73
2022/09/27 04:41:20;;;;;;;;;;;10.50;99.90;;;;;;4893412;29;19978;-73
2022/09/27 04:43:46;;;;;;;;;;;10.50;99.90;;;;;;4893224;29;19919;-73
2022/09/27 04:46:12;;;;;;;;;;;10.40;99.90;;;;;;4894098;29;19954;-73
2022/09/27 04:48:38;;;;;;;;;;;10.50;99.90;;;;;;4890069;29;19912;-73
2022/09/27 04:51:04;;;;;;;;;;;10.40;99.90;;;;;;4890243;29;20002;-72
2022/09/27 04:53:30;;;;;;;;;;;10.50;99.90;;;;;;4890248;29;20143;-73
2022/09/27 04:55:56;;;;;;;;;;;10.40;99.90;;;;;;4891161;29;19912;-73
2022/09/27 04:58:22;;;;;;;;;;;10.30;99.90;;;;;;4891030;29;19946;-73
2022/09/27 05:00:49;;;;;;;;;;;10.30;99.90;;;;;;4900418;29;20109;-73
2022/09/27 05:03:14;;;;;;;;;;;10.40;99.90;;;;;;4904512;29;19971;-73
2022/09/27 05:05:40;;;;;;;;;;;10.40;99.90;;;;;;4908550;29;19923;-73
2022/09/27 05:08:06;;;;;;;;;;;10.40;99.90;;;;;;4908554;29;19920;-73
2022/09/27 05:10:32;;;;;;;;;;;10.40;99.90;;;;;;4893126;29;20113;-73
2022/09/27 05:12:57;;;;;;;;;;;10.40;99.90;;;;;;4909373;29;19911;-73
2022/09/27 05:15:23;;;;;;;;;;;10.40;99.90;;;;;;4908556;29;19919;-73
2022/09/27 05:17:52;;;;;;;;;;;10.40;99.90;;;;;;4908006;29;19919;-73
2022/09/27 05:20:18;;;;;;;;;;;10.40;99.90;;;;;;4908438;29;20146;-73
2022/09/27 05:22:44;;;;;;;;;;;10.40;99.90;;;;;;4909445;29;19926;-73
2022/09/27 05:25:10;;;;;;;;;;;10.40;99.90;;;;;;4908261;29;19915;-73
2022/09/27 05:27:35;;;;;;;;;;;10.40;99.90;;;;;;4909060;29;19939;-73
2022/09/27 05:30:01;;;;;;;;;;;10.40;99.90;;;;;;4908319;29;19947;-73
2022/09/27 05:32:28;;;;;;;;;;;10.40;99.90;;;;;;4908962;29;19916;-73
2022/09/27 05:34:53;;;;;;;;;;;10.40;99.90;;;;;;4908188;29;20007;-73
2022/09/27 05:37:19;;;;;;;;;;;10.50;99.90;;;;;;4907900;29;20210;-72
2022/09/27 05:39:45;;;;;;;;;;;10.50;99.90;;;;;;4909404;29;19919;-72
2022/09/27 05:42:14;;;;;;;;;;;10.50;99.90;;;;;;4900876;29;19912;-72
2022/09/27 05:44:40;;;;;;;;;;;10.60;99.90;;;;;;4890203;29;19924;-73
2022/09/27 05:47:06;;;;;;;;;;;10.60;99.90;;;;;;4891132;29;19935;-73
2022/09/27 05:49:32;;;;;;;;;;;10.60;99.90;;;;;;4893399;29;20203;-73
2022/09/27 05:51:57;;;;;;;;;;;10.60;99.90;;;;;;4895469;29;19943;-73
2022/09/27 05:54:23;;;;;;;;;;;10.60;99.90;;;;;;4895355;29;19945;-73
2022/09/27 05:56:50;;;;;;;;;;;10.60;99.90;;;;;;4910325;29;19920;-73
2022/09/27 05:59:15;;;;;;;;;;;10.60;99.90;;;;;;4889527;29;20321;-73
2022/09/27 06:01:41;;;;;;;;;;;10.60;99.90;;;;;;4906756;29;19982;-73
2022/09/27 06:04:07;;;;;;;;;;;10.70;99.90;;;;;;4907629;29;20118;-73
2022/09/27 06:06:35;;;;;;;;;;;10.70;99.90;;;;;;4907646;29;19922;-74
2022/09/27 06:09:01;;;;;;;;;;;10.70;99.90;;;;;;4892342;29;19912;-73
2022/09/27 06:11:27;;;;;;;;;;;10.70;99.90;;;;;;4907562;29;19975;-73
2022/09/27 06:13:52;;;;;;;;;;;10.70;99.90;;;;;;4907343;29;19916;-73
2022/09/27 06:16:18;;;;;;;;;;;10.70;99.90;;;;;;4907198;29;19935;-73
2022/09/27 06:18:44;;;;;;;;;;;10.70;99.90;;;;;;4907697;29;19978;-73
2022/09/27 06:21:10;;;;;;;;;;;10.80;99.90;;;;;;4907449;29;19912;-73
2022/09/27 06:23:35;;;;;;;;;;;10.80;99.90;;;;;;4908522;29;20099;-73
2022/09/27 06:26:02;;;;;;;;;;;10.80;99.90;;;;;;4907182;29;19916;-72
2022/09/27 06:28:28;;;;;;;;;;;10.80;99.90;;;;;;4907194;29;19918;-73
2022/09/27 06:30:54;;;;;;;;;;;10.80;99.90;;;;;;4891592;29;19919;-72
2022/09/27 06:33:20;;;;;;;;;;;10.80;99.90;;;;;;4907066;29;19915;-73
2022/09/27 06:35:46;;;;;;;;;;;10.90;99.90;;;;;;4907893;29;19950;-73
2022/09/27 06:38:14;;;;;;;;;;;10.90;99.90;;;;;;4890799;29;20143;-76
2022/09/27 06:40:44;;;;;;;;;;;10.90;99.90;;;;;;4907108;29;19911;-73
2022/09/27 06:43:10;;;;;;;;;;;10.90;99.90;;;;;;4907055;29;19917;-72
2022/09/27 06:45:36;;;;;;;;;;;10.80;99.90;;;;;;4906704;29;19920;-72
2022/09/27 06:48:03;;;;;;;;;;;10.80;99.90;;;;;;4906618;29;19912;-73
2022/09/27 06:50:29;;;;;;;;;;;10.80;99.90;;;;;;4891349;29;19911;-72
2022/09/27 06:52:55;;;;;;;;;;;10.80;99.90;;;;;;4907777;29;19911;-72
2022/09/27 06:55:21;;;;;;;;;;;10.80;99.90;;;;;;4907854;29;19951;-73
2022/09/27 07:00:31;;;;;;;;;;;10.70;99.90;;;;;;4907817;29;19933;-72
2022/09/27 07:03:00;;;;;;;;;;;10.70;99.90;;;;;;4907836;29;20198;-72
2022/09/27 07:05:29;;;;;;;;;;;10.70;99.90;;;;;;4906461;29;19922;-72
2022/09/27 07:07:56;;;;;;;;;;;10.70;99.90;;;;;;4905317;29;19911;-72
2022/09/27 07:10:27;;;;;;;;;;;10.60;99.90;;;;;;4906646;29;20265;-72
2022/09/27 07:12:53;;;;;;;;;;;10.50;99.90;;;;;;4875035;29;19912;-72
2022/09/27 07:15:22;;;;;;;;;;;10.50;99.90;;;;;;4906152;29;19919;-71
2022/09/27 07:17:55;;;;;;;;;;;10.50;99.90;;;;;;4906115;29;19919;-71
2022/09/27 07:20:21;;;;;;;;;;;10.50;99.90;;;;;;4906649;29;19950;-71
2022/09/27 07:22:46;;;;;;;;;;;10.50;99.90;;;;;;4907460;29;20257;-71
2022/09/27 07:25:12;;;;;;;;;;;10.40;99.90;;;;;;4907336;29;19915;-70
2022/09/27 07:27:40;;;;;;;;;;;10.40;99.90;;;;;;4906731;29;19919;-70
2022/09/27 07:30:07;;;;;;;;;;;10.30;99.90;;;;;;4906112;29;19911;-70
2022/09/27 07:32:35;;;;;;;;;;;10.30;99.90;;;;;;4906362;29;19946;-71
2022/09/27 07:35:05;;;;;;;;;;;10.30;99.90;;;;;;4906475;29;19912;-70
2022/09/27 07:37:31;;;;;;;;;;;10.30;99.90;;;;;;4902744;29;19915;-70
2022/09/27 07:39:58;;;;;;;;;;;10.30;99.90;;;;;;4896690;29;19919;-71
2022/09/27 07:42:23;;;;;;;;;;;10.30;99.90;;;;;;4900419;29;20275;-71
2022/09/27 07:44:49;;;;;;;;;;;10.30;99.90;;;;;;4902890;29;19939;-70
2022/09/27 07:47:15;;;;;;;;;;;10.40;99.90;;;;;;4895476;29;20147;-70
2022/09/27 07:49:41;;;;;;;;;;;10.30;99.90;;;;;;4888614;29;19911;-70
2022/09/27 07:52:07;;;;;;;;;;;10.40;99.90;;;;;;4902644;29;19967;-70
2022/09/27 07:54:32;;;;;;;;;;;10.50;99.90;;;;;;4906194;29;19912;-69
2022/09/27 07:56:58;;;;;;;;;;;10.60;99.90;;;;;;4906853;29;19911;-70
2022/09/27 07:59:24;;;;;;;;;;;10.70;99.90;;;;;;4907189;29;20006;-71
2022/09/27 08:01:49;;;;;;;;;;;10.80;99.90;;;;;;4905217;29;19911;-71
2022/09/27 08:04:15;;;;;;;;;;;10.90;99.90;;;;;;4907279;29;19923;-71
2022/09/27 08:06:41;;;;;;;;;;;11.00;99.90;;;;;;4906883;29;19918;-70
2022/09/27 08:09:08;;;;;;;;;;;11.00;99.90;;;;;;4906208;29;20213;-71
2022/09/27 08:11:36;;;;;;;;;;;11.00;99.90;;;;;;4907169;29;19920;-71
2022/09/27 08:14:03;;;;;;;;;;;11.00;99.90;;;;;;4905761;29;20258;-70
2022/09/27 08:16:29;;;;;;;;;;;11.00;99.90;;;;;;4906348;29;19917;-71
2022/09/27 08:18:54;;;;;;;;;;;11.00;99.90;;;;;;4907073;29;19973;-70
2022/09/27 08:21:20;;;;;;;;;;;10.90;99.90;;;;;;4907335;29;20095;-70
2022/09/27 08:23:46;;;;;;;;;;;10.90;99.90;;;;;;4917440;29;19964;-71
2022/09/27 08:26:11;;;;;;;;;;;10.90;99.90;;;;;;4905977;29;19911;-71
2022/09/27 08:28:37;;;;;;;;;;;10.90;99.90;;;;;;4905974;29;19918;-70
2022/09/27 08:31:03;;;;;;;;;;;10.90;99.90;;;;;;4891452;29;19939;-71
2022/09/27 08:33:28;;;;;;;;;;;10.90;99.90;;;;;;4906217;29;19927;-71
2022/09/27 08:35:54;;;;;;;;;;;10.80;99.90;;;;;;4891465;29;19912;-71
2022/09/27 08:38:21;;;;;;;;;;;10.90;99.90;;;;;;4905783;29;20115;-70
2022/09/27 08:40:56;;;;;;;;;;;11.00;99.90;;;;;;4890390;29;20222;-71
2022/09/27 08:43:47;;;;;;;;;;;11.10;99.90;;;;;;4906077;29;19918;-71
2022/09/27 08:46:19;;;;;;;;;;;11.10;99.90;;;;;;4891065;29;20214;-71
2022/09/27 08:48:48;;;;;;;;;;;11.10;99.90;;;;;;4890149;29;19978;-70
2022/09/27 08:51:14;;;;;;;;;;;11.10;99.90;;;;;;4905848;29;19936;-70
2022/09/27 08:53:48;;;;;;;;;;;11.10;99.90;;;;;;4896854;29;19911;-71
2022/09/27 08:56:14;;;;;;;;;;;11.00;99.90;;;;;;4893355;29;20456;-71
2022/09/27 08:59:01;;;;;;;;;;;10.90;99.90;;;;;;4908785;29;19919;-71
2022/09/27 09:01:27;;;;;;;;;;;10.90;99.90;;;;;;4895773;29;19952;-71
2022/09/27 09:03:54;;;;;;;;;;;10.90;99.90;;;;;;4892975;29;20255;-70
2022/09/27 09:06:28;;;;;;;;;;;11.00;99.90;;;;;;4893054;29;19915;-71
2022/09/27 09:09:27;;;;;;;;;;;11.10;99.90;;;;;;4893295;29;19919;-71
2022/09/27 09:14:47;;;;;;;;;;;11.20;99.90;;;;;;4890975;29;19951;-70
2022/09/27 09:17:48;;;;;;;;;;;11.30;99.90;;;;;;4895964;29;19911;-70
2022/09/27 09:20:35;;;;;;;;;;;11.30;99.90;;;;;;4903555;29;19951;-71
2022/09/27 09:23:26;;;;;;;;;;;11.40;99.90;;;;;;4904952;29;19959;-71
2022/09/27 09:25:59;;;;;;;;;;;11.40;99.90;;;;;;4904805;29;19916;-70
2022/09/27 09:28:34;;;;;;;;;;;11.50;99.90;;;;;;4888872;29;19919;-71
2022/09/27 09:31:34;;;;;;;;;;;11.60;99.90;;;;;;4890454;29;19919;-70
2022/09/27 09:34:05;;;;;;;;;;;11.70;99.90;;;;;;4889857;29;19912;-71
2022/09/27 09:36:37;;;;;;;;;;;11.80;99.90;;;;;;4900923;29;19944;-70
2022/09/27 09:39:14;;;;;;;;;;;11.90;99.90;;;;;;4904885;29;19959;-70
2022/09/27 09:41:42;;;;;;;;;;;12.00;99.90;;;;;;4895511;29;19935;-70
2022/09/27 09:44:27;;;;;;;;;;;12.20;99.90;;;;;;4892732;29;19982;-70
2022/09/27 09:46:55;;;;;;;;;;;12.30;99.90;;;;;;4907881;29;19911;-70
2022/09/27 09:49:41;;;;;;;;;;;12.40;99.90;;;;;;4904080;29;19911;-71
2022/09/27 09:52:13;;;;;;;;;;;12.50;99.90;;;;;;4889331;29;20129;-70
2022/09/27 09:54:55;;;;;;;;;;;12.50;99.90;;;;;;4897319;29;19927;-69
2022/09/27 09:57:38;;;;;;;;;;;12.50;99.90;;;;;;4890037;29;19968;-69
2022/09/27 10:00:06;;;;;;;;;;;12.40;99.90;;;;;;4904657;29;20238;-69
2022/09/27 10:02:36;;;;;;;;;;;12.20;99.90;;;;;;4888806;29;19912;-69
2022/09/27 10:05:02;;;;;;;;;;;12.10;99.90;;;;;;4888980;29;20333;-70
2022/09/27 10:07:28;;;;;;;;;;;12.00;99.90;;;;;;4904095;29;19919;-70
2022/09/27 10:09:55;;;;;;;;;;;11.90;99.90;;;;;;4904470;29;20252;-70
2022/09/27 10:12:20;;;;;;;;;;;12.00;99.90;;;;;;4888849;29;19978;-71
2022/09/27 10:14:47;;;;;;;;;;;12.00;99.90;;;;;;4904383;29;19919;-70
2022/09/27 10:17:15;;;;;;;;;;;12.00;99.90;;;;;;4887759;29;19916;-70
2022/09/27 10:19:41;;;;;;;;;;;12.10;99.90;;;;;;4888801;29;20211;-70
2022/09/27 10:22:15;;;;;;;;;;;12.10;99.90;;;;;;4888709;29;19959;-70
2022/09/27 10:24:56;;;;;;;;;;;12.00;99.90;;;;;;4888578;29;19915;-70
2022/09/27 10:27:24;;;;;;;;;;;12.00;99.90;;;;;;4889373;29;19912;-71
2022/09/27 10:29:57;;;;;;;;;;;11.90;99.90;;;;;;4903180;29;19911;-71
2022/09/27 10:32:35;;;;;;;;;;;11.90;99.90;;;;;;4904100;29;20257;-70
2022/09/27 10:35:20;;;;;;;;;;;11.80;99.90;;;;;;4888482;29;19912;-71
2022/09/27 10:37:46;;;;;;;;;;;11.70;99.90;;;;;;4903498;29;19915;-70
2022/09/27 10:40:29;;;;;;;;;;;11.60;99.90;;;;;;4889407;29;19936;-70
2022/09/27 10:42:55;;;;;;;;;;;11.50;99.90;;;;;;4889501;29;19911;-70
2022/09/27 10:45:31;;;;;;;;;;;11.40;99.90;;;;;;4903437;29;19949;-70
2022/09/27 10:48:00;;;;;;;;;;;11.40;99.90;;;;;;4887911;29;19936;-69
2022/09/27 10:50:28;;;;;;;;;;;11.40;99.90;;;;;;4903732;29;20222;-70
2022/09/27 10:53:13;;;;;;;;;;;11.50;99.90;;;;;;4889629;29;19939;-70
2022/09/27 10:55:39;;;;;;;;;;;11.60;99.90;;;;;;4903707;29;19920;-70
2022/09/27 10:58:05;;;;;;;;;;;11.70;99.90;;;;;;4903391;29;20087;-71
2022/09/27 11:00:35;;;;;;;;;;;11.80;99.90;;;;;;4887770;29;19912;-71
2022/09/27 11:03:03;;;;;;;;;;;11.80;99.90;;;;;;4906283;29;20250;-71
2022/09/27 11:05:29;;;;;;;;;;;11.90;99.90;;;;;;4906823;29;19930;-70
2022/09/27 11:07:57;;;;;;;;;;;12.00;99.90;;;;;;4906024;29;19911;-71
2022/09/27 11:10:27;;;;;;;;;;;12.20;99.90;;;;;;4888845;29;20282;-73
2022/09/27 11:13:17;;;;;;;;;;;12.40;99.90;;;;;;4882650;29;19911;-73
2022/09/27 11:15:49;;;;;;;;;;;12.80;99.90;;;;;;4937027;29;19982;-73
2022/09/27 11:18:35;;;;;;;;;;;13.30;99.90;;;;;;4907096;29;19934;-74
2022/09/27 11:21:08;;;;;;;;;;;13.60;99.90;;;;;;4906460;29;20019;-73
2022/09/27 11:23:36;;;;;;;;;;;13.50;99.90;;;;;;4900361;29;19982;-75
2022/09/27 11:26:09;;;;;;;;;;;13.20;99.90;;;;;;4889241;29;19915;-73
2022/09/27 11:28:41;;;;;;;;;;;12.90;99.90;;;;;;4910217;29;19916;-73
2022/09/27 11:31:30;;;;;;;;;;;12.70;99.90;;;;;;4913802;29;19918;-72
2022/09/27 11:34:27;;;;;;;;;;;12.40;99.90;;;;;;4900624;29;19900;-71
2022/09/27 11:37:05;;;;;;;;;;;12.50;99.90;;;;;;4895697;29;19983;-71
2022/09/27 11:39:53;;;;;;;;;;;12.60;99.90;;;;;;4895380;29;19937;-71
2022/09/27 11:42:27;;;;;;;;;;;12.80;99.90;;;;;;4889089;29;20479;-71
2022/09/27 11:45:01;;;;;;;;;;;12.90;99.90;;;;;;4899082;29;19986;-70
2022/09/27 11:47:50;;;;;;;;;;;12.90;99.90;;;;;;4907332;29;19926;-71
2022/09/27 11:50:18;;;;;;;;;;;12.80;99.90;;;;;;4890704;29;20225;-71
2022/09/27 11:52:48;;;;;;;;;;;12.70;99.90;;;;;;4903992;29;19963;-72
2022/09/27 11:55:19;;;;;;;;;;;12.70;99.90;;;;;;4906255;29;19924;-71
2022/09/27 11:57:52;;;;;;;;;;;12.80;99.90;;;;;;4889146;29;20214;-71
2022/09/27 12:00:24;;;;;;;;;;;12.80;99.90;;;;;;4891496;29;19912;-71
2022/09/27 12:03:15;;;;;;;;;;;13.10;99.90;;;;;;4893668;29;19987;-71
2022/09/27 12:05:46;;;;;;;;;;;13.40;99.90;;;;;;4913350;29;19990;-70
2022/09/27 12:08:37;;;;;;;;;;;14.10;99.90;;;;;;4929381;29;19946;-70
2022/09/27 12:11:30;;;;;;;;;;;15.10;99.90;;;;;;4891257;29;19920;-71
2022/09/27 12:13:58;;;;;;;;;;;16.20;99.90;;;;;;4890879;29;19912;-70
2022/09/27 12:16:24;;;;;;;;;;;17.00;99.90;;;;;;4899592;29;19946;-71
2022/09/27 12:18:50;;;;;;;;;;;16.90;99.90;;;;;;4875108;29;20206;-69
2022/09/27 12:21:15;;;;;;;;;;;16.80;99.90;;;;;;4895203;29;19936;-70
2022/09/27 12:23:43;;;;;;;;;;;17.40;99.90;;;;;;4893673;29;19916;-70
2022/09/27 12:26:21;;;;;;;;;;;18.20;99.90;;;;;;4893602;29;19990;-70
2022/09/27 12:28:54;;;;;;;;;;;18.40;99.90;;;;;;4893170;29;20229;-69
2022/09/27 12:31:23;;;;;;;;;;;17.70;99.90;;;;;;4910385;29;19919;-70
2022/09/27 12:34:08;;;;;;;;;;;17.00;99.90;;;;;;4904968;29;20214;-70
2022/09/27 12:36:36;;;;;;;;;;;16.30;99.90;;;;;;4895040;29;20011;-69
2022/09/27 12:39:16;;;;;;;;;;;15.90;99.90;;;;;;4906396;29;20109;-70
2022/09/27 12:41:45;;;;;;;;;;;15.50;99.90;;;;;;4909256;29;19912;-70
2022/09/27 12:44:12;;;;;;;;;;;15.00;99.90;;;;;;4905308;29;19922;-72
2022/09/27 12:47:14;;;;;;;;;;;14.60;99.90;;;;;;4890998;29;19911;-71
2022/09/27 12:50:03;;;;;;;;;;;14.30;99.90;;;;;;4874384;29;19912;-71
2022/09/27 12:52:30;;;;;;;;;;;13.90;99.90;;;;;;4889327;29;19923;-71
2022/09/27 12:55:16;;;;;;;;;;;13.50;99.90;;;;;;4890421;29;20134;-71
2022/09/27 12:58:07;;;;;;;;;;;13.30;99.90;;;;;;4889920;29;19959;-71
2022/09/27 13:00:39;;;;;;;;;;;13.00;99.90;;;;;;4890425;29;20257;-73
2022/09/27 13:03:33;;;;;;;;;;;12.60;99.90;;;;;;4898723;29;19960;-71
2022/09/27 13:06:47;;;;;;;;;;;12.40;99.90;;;;;;4890130;29;19928;-72
2022/09/27 13:09:20;;;;;;;;;;;12.20;99.90;;;;;;4917522;29;20440;-73
2022/09/27 13:12:04;;;;;;;;;;;12.00;99.90;;;;;;4889601;29;20119;-72
2022/09/27 13:14:34;;;;;;;;;;;11.90;99.90;;;;;;4890770;29;19968;-72
2022/09/27 13:16:59;;;;;;;;;;;11.90;99.90;;;;;;4890729;29;19995;-72
2022/09/27 13:19:34;;;;;;;;;;;11.90;99.90;;;;;;4908389;29;19912;-72
2022/09/27 13:22:03;;;;;;;;;;;12.20;99.90;;;;;;4907448;29;19911;-73
2022/09/27 13:24:39;;;;;;;;;;;12.50;99.90;;;;;;4908051;29;20107;-73
2022/09/27 13:27:32;;;;;;;;;;;12.70;99.90;;;;;;4903981;29;19934;-72
2022/09/27 13:30:07;;;;;;;;;;;13.00;99.90;;;;;;4891089;29;19965;-71
2022/09/27 13:32:32;;;;;;;;;;;13.50;99.90;;;;;;4891200;29;19915;-71
2022/09/27 13:35:25;;;;;;;;;;;13.70;99.90;;;;;;4891212;29;19950;-71
2022/09/27 13:38:00;;;;;;;;;;;13.60;99.90;;;;;;4910173;29;19919;-71
2022/09/27 13:40:31;;;;;;;;;;;13.40;99.90;;;;;;4889564;29;19911;-71
2022/09/27 13:43:16;;;;;;;;;;;13.20;99.90;;;;;;4890201;29;20218;-71
2022/09/27 13:45:50;;;;;;;;;;;13.00;99.90;;;;;;4889478;29;19943;-72
2022/09/27 13:48:20;;;;;;;;;;;12.80;99.90;;;;;;4884210;29;20225;-71
2022/09/27 13:50:48;;;;;;;;;;;12.60;99.90;;;;;;4892579;29;19919;-71
2022/09/27 13:53:34;;;;;;;;;;;12.50;99.90;;;;;;4891819;29;19979;-71
2022/09/27 13:56:00;;;;;;;;;;;12.50;99.90;;;;;;4907312;29;20167;-72
2022/09/27 13:58:32;;;;;;;;;;;12.40;99.90;;;;;;4888330;29;19912;-71
2022/09/27 14:00:59;;;;;;;;;;;12.40;99.90;;;;;;4888730;29;19912;-72
2022/09/27 14:03:34;;;;;;;;;;;12.40;99.90;;;;;;4890098;29;20101;-71
2022/09/27 14:06:05;;;;;;;;;;;12.40;99.90;;;;;;4881295;29;19920;-72
2022/09/27 14:08:31;;;;;;;;;;;12.30;99.90;;;;;;4875030;29;19919;-71
2022/09/27 14:10:56;;;;;;;;;;;12.20;99.90;;;;;;4888775;29;19912;-72
2022/09/27 14:13:23;;;;;;;;;;;12.20;99.90;;;;;;4889449;29;19911;-71
2022/09/27 14:15:49;;;;;;;;;;;12.10;99.90;;;;;;4873384;29;19939;-72
2022/09/27 14:18:14;;;;;;;;;;;12.10;99.90;;;;;;4899131;29;19920;-72
2022/09/27 14:20:44;;;;;;;;;;;12.00;99.90;;;;;;4908017;29;19918;-72
2022/09/27 14:23:24;;;;;;;;;;;11.90;99.90;;;;;;4907297;29;19912;-72
2022/09/27 14:25:51;;;;;;;;;;;11.80;99.90;;;;;;4907165;29;19963;-72
2022/09/27 14:28:18;;;;;;;;;;;11.90;99.90;;;;;;4907244;29;19926;-71
2022/09/27 14:30:45;;;;;;;;;;;11.90;99.90;;;;;;4891724;29;20126;-71
2022/09/27 14:33:26;;;;;;;;;;;12.00;99.90;;;;;;4907843;29;20150;-71
2022/09/27 14:38:36;;;;;;;;;;;12.20;99.90;;;;;;4906999;29;19931;-72
2022/09/27 14:41:03;;;;;;;;;;;12.40;99.90;;;;;;4907274;29;20114;-72
2022/09/27 14:43:30;;;;;;;;;;;12.70;99.90;;;;;;4892205;29;20130;-72
2022/09/27 14:45:58;;;;;;;;;;;13.50;99.90;;;;;;4906830;29;20240;-71